Time;durP1;ratioP1;P1;durP2;ratioP2;P2;SDS_P1;SDS_P2;PMS_P1;PMS_P2;Temp;Humidity;BMP_temperature;BMP_pressure;BME280_temperature;BME280_humidity;BME280_pressure;Samples;Min_cycle;Max_cycle;Signal;HPM_P1;HPM_P2
2023/02/24 00:02:06;;;;;;;3.47;0.65;;;25.30;62.80;;;;;;5143068;23;20450;-59
2023/02/24 00:04:37;;;;;;;3.75;0.85;;;25.30;62.20;;;;;;5143456;23;20020;-59
2023/02/24 00:07:01;;;;;;;2.38;0.93;;;25.30;62.30;;;;;;5143985;23;20063;-57
2023/02/24 00:09:28;;;;;;;3.53;0.80;;;25.30;63.10;;;;;;5143720;23;20112;-53
2023/02/24 00:11:58;;;;;;;9.05;1.70;;;25.40;62.90;;;;;;5145109;23;20017;-55
2023/02/24 00:14:20;;;;;;;5.53;1.10;;;25.40;62.70;;;;;;5143670;23;20062;-56
2023/02/24 00:16:44;;;;;;;2.85;1.10;;;25.40;62.60;;;;;;5142478;23;20016;-50
2023/02/24 00:19:06;;;;;;;4.82;1.00;;;25.50;62.50;;;;;;5143542;23;20025;-51
2023/02/24 00:21:29;;;;;;;15.30;1.13;;;25.50;62.40;;;;;;5145407;23;20092;-51
2023/02/24 00:23:52;;;;;;;6.05;0.90;;;25.60;62.40;;;;;;5142517;23;20020;-51
2023/02/24 00:26:15;;;;;;;5.45;0.88;;;25.50;62.40;;;;;;5135374;23;20465;-53
2023/02/24 00:28:38;;;;;;;4.10;0.77;;;25.50;62.20;;;;;;5141129;23;20111;-51
2023/02/24 00:31:15;;;;;;;1.85;0.50;;;25.60;62.20;;;;;;5133953;23;20022;-51
2023/02/24 00:33:38;;;;;;;1.88;0.50;;;25.60;62.00;;;;;;5141972;23;20016;-52
2023/02/24 00:36:12;;;;;;;1.98;0.60;;;25.60;62.00;;;;;;5135462;23;20016;-52
2023/02/24 00:38:35;;;;;;;2.28;0.77;;;25.60;62.00;;;;;;5142943;23;20016;-50
2023/02/24 00:40:59;;;;;;;2.88;0.70;;;25.70;62.00;;;;;;5141757;23;20095;-56
2023/02/24 00:43:21;;;;;;;1.98;0.60;;;25.60;62.00;;;;;;5133695;23;20032;-53
2023/02/24 00:45:45;;;;;;;1.52;0.77;;;25.70;62.10;;;;;;5142825;23;20019;-56
2023/02/24 00:48:09;;;;;;;1.90;0.82;;;25.70;62.10;;;;;;5134135;23;20016;-56
2023/02/24 00:50:32;;;;;;;2.45;1.02;;;25.70;62.20;;;;;;5142354;23;20048;-50
2023/02/24 00:52:55;;;;;;;1.58;0.68;;;25.70;62.00;;;;;;5143029;23;20019;-55
2023/02/24 00:55:18;;;;;;;5.70;1.00;;;25.70;61.40;;;;;;5136819;23;20017;-53
2023/02/24 00:57:40;;;;;;;5.07;1.40;;;25.70;61.40;;;;;;5136951;23;20051;-53
2023/02/24 01:00:09;;;;;;;2.53;0.87;;;25.70;61.50;;;;;;5143682;23;20450;-53
2023/02/24 01:02:31;;;;;;;4.45;0.82;;;25.70;61.50;;;;;;5136118;23;20507;-53
2023/02/24 01:04:53;;;;;;;2.58;0.70;;;25.70;61.60;;;;;;5134943;23;20020;-57
2023/02/24 01:07:16;;;;;;;1.17;0.70;;;25.70;61.60;;;;;;5142639;23;20451;-57
2023/02/24 01:09:40;;;;;;;2.30;0.90;;;25.80;61.30;;;;;;5142169;23;20450;-55
2023/02/24 01:14:46;;;;;;;3.22;0.90;;;25.80;61.30;;;;;;5145585;22;20013;-54
2023/02/24 01:17:08;;;;;;;3.13;1.10;;;25.80;61.20;;;;;;5145633;23;20032;-55
2023/02/24 01:19:33;;;;;;;2.60;0.75;;;25.80;61.10;;;;;;5144800;23;20019;-52
2023/02/24 01:21:56;;;;;;;2.08;0.68;;;25.90;61.20;;;;;;5145089;23;20036;-50
2023/02/24 01:24:19;;;;;;;3.40;0.80;;;25.90;61.10;;;;;;5142972;23;20020;-50
2023/02/24 01:26:42;;;;;;;2.05;0.68;;;25.90;60.90;;;;;;5144781;23;20016;-49
2023/02/24 01:29:04;;;;;;;;;;;26.00;60.30;;;;;;5137374;23;20394;-50
2023/02/24 01:31:27;;;;;;;5.38;0.70;;;26.00;60.80;;;;;;5135485;23;19919;-50
2023/02/24 01:33:50;;;;;;;2.45;0.60;;;26.00;61.40;;;;;;5136101;23;20012;-53
2023/02/24 01:36:16;;;;;;;3.67;0.65;;;26.10;60.60;;;;;;5145361;23;20015;-52
2023/02/24 01:38:41;;;;;;;1.92;0.50;;;26.10;60.40;;;;;;5142141;23;20423;-52
2023/02/24 01:41:04;;;;;;;1.02;0.70;;;26.10;60.40;;;;;;5143266;23;20021;-52
2023/02/24 01:43:26;;;;;;;1.43;0.50;;;26.10;60.40;;;;;;5144178;23;20029;-55
2023/02/24 01:45:50;;;;;;;2.15;0.57;;;26.10;60.30;;;;;;5143053;23;20261;-56
2023/02/24 01:48:16;;;;;;;;;;;26.10;60.40;;;;;;5142639;23;20036;-53
2023/02/24 01:50:39;;;;;;;2.13;0.68;;;26.10;60.30;;;;;;5131548;23;20415;-54
2023/02/24 01:53:04;;;;;;;1.23;0.52;;;26.10;60.30;;;;;;5141439;23;20055;-55
2023/02/24 01:55:37;;;;;;;1.48;0.52;;;26.10;60.30;;;;;;5144167;23;20027;-52
2023/02/24 01:58:05;;;;;;;2.15;0.85;;;26.20;60.30;;;;;;5143139;23;20066;-54
2023/02/24 02:00:37;;;;;;;2.35;0.63;;;26.20;59.90;;;;;;5144718;23;20020;-54
2023/02/24 02:03:08;;;;;;;1.77;0.65;;;26.20;59.00;;;;;;5141018;23;20391;-52
2023/02/24 02:05:31;;;;;;;17.42;2.80;;;26.20;59.30;;;;;;5137314;23;20017;-52
2023/02/24 02:07:54;;;;;;;10.30;1.67;;;26.20;59.80;;;;;;5146944;23;20016;-55
2023/02/24 02:10:17;;;;;;;9.13;1.40;;;26.20;59.60;;;;;;5145618;23;20359;-54
2023/02/24 02:12:42;;;;;;;7.25;1.35;;;26.20;60.20;;;;;;5146400;23;20008;-50
2023/02/24 02:15:07;;;;;;;3.97;0.90;;;26.20;60.30;;;;;;5144993;23;20449;-52
2023/02/24 02:17:36;;;;;;;2.97;0.70;;;26.20;60.60;;;;;;5144830;23;20012;-55
2023/02/24 02:20:14;;;;;;;2.92;0.95;;;26.20;60.70;;;;;;5144320;23;20027;-50
2023/02/24 02:23:06;;;;;;;5.32;0.95;;;26.20;60.90;;;;;;5137783;23;20048;-50
2023/02/24 02:26:05;;;;;;;3.60;0.80;;;26.20;61.00;;;;;;5144191;23;20067;-59
2023/02/24 02:28:45;;;;;;;1.88;0.82;;;26.30;61.10;;;;;;5143124;23;20016;-54
2023/02/24 02:31:31;;;;;;;1.60;0.52;;;26.30;60.40;;;;;;5143736;23;20294;-57
2023/02/24 02:34:18;;;;;;;2.97;0.70;;;26.30;59.80;;;;;;5142615;23;20013;-51
2023/02/24 02:36:59;;;;;;;1.73;0.57;;;26.20;59.40;;;;;;5143481;23;20367;-54
2023/02/24 02:39:39;;;;;;;3.10;0.75;;;26.20;59.50;;;;;;5143002;23;20020;-53
2023/02/24 02:42:23;;;;;;;2.90;0.70;;;26.30;59.80;;;;;;5141935;23;20016;-52
2023/02/24 02:45:04;;;;;;;4.90;0.60;;;26.30;59.70;;;;;;5140614;23;20071;-52
2023/02/24 02:47:26;;;;;;;3.28;0.80;;;26.30;59.20;;;;;;5143057;23;20485;-53
2023/02/24 02:50:19;;;;;;;1.05;0.50;;;26.40;59.90;;;;;;5143528;23;20115;-53
2023/02/24 02:52:55;;;;;;;1.52;0.60;;;26.50;60.00;;;;;;5145239;23;20526;-57
2023/02/24 02:55:52;;;;;;;1.83;0.77;;;26.60;59.50;;;;;;5144083;23;20016;-54
2023/02/24 02:58:19;;;;;;;13.10;2.45;;;26.60;59.30;;;;;;5134287;23;20055;-46
2023/02/24 03:01:01;;;;;;;28.67;2.58;;;26.60;59.40;;;;;;5145425;23;20447;-47
2023/02/24 03:03:26;;;;;;;14.05;1.77;;;26.70;59.60;;;;;;5143361;23;20059;-50
2023/02/24 03:06:09;;;;;;;10.15;1.88;;;26.70;59.60;;;;;;5144897;23;20020;-50
2023/02/24 03:08:36;;;;;;;6.10;1.20;;;26.80;59.70;;;;;;5143699;23;20027;-47
2023/02/24 03:11:01;;;;;;;8.32;1.42;;;26.80;59.40;;;;;;5135638;23;20023;-46
2023/02/24 03:13:29;;;;;;;9.18;1.88;;;26.90;59.40;;;;;;5133667;23;20012;-47
2023/02/24 03:15:54;;;;;;;7.55;1.25;;;26.90;59.20;;;;;;5144891;23;20039;-46
2023/02/24 03:18:27;;;;;;;8.90;1.13;;;26.90;59.20;;;;;;5144372;23;20415;-48
2023/02/24 03:20:58;;;;;;;2.67;0.80;;;27.00;59.20;;;;;;5145121;23;20013;-48
2023/02/24 03:23:30;;;;;;;3.70;0.93;;;27.00;59.20;;;;;;5145423;23;20016;-51
2023/02/24 03:26:22;;;;;;;2.22;0.70;;;27.00;59.40;;;;;;5136668;23;20075;-52
2023/02/24 03:28:53;;;;;;;2.50;0.65;;;27.10;59.50;;;;;;5133543;23;20031;-49
2023/02/24 03:31:58;;;;;;;3.70;0.93;;;27.10;59.30;;;;;;5134931;23;20016;-48
2023/02/24 03:34:43;;;;;;;1.27;0.52;;;27.10;59.20;;;;;;5133544;23;20407;-49
2023/02/24 03:37:05;;;;;;;1.13;0.50;;;27.20;59.00;;;;;;5140854;23;20075;-49
2023/02/24 03:39:28;;;;;;;4.22;0.50;;;27.20;59.00;;;;;;5141168;23;20016;-48
2023/02/24 03:42:25;;;;;;;1.63;0.50;;;27.20;59.10;;;;;;5140678;23;20012;-44
2023/02/24 03:44:48;;;;;;;5.85;0.77;;;27.30;59.00;;;;;;5129837;23;20081;-47
2023/02/24 03:47:14;;;;;;;2.35;0.65;;;27.30;59.10;;;;;;5131223;23;20091;-44
2023/02/24 03:49:37;;;;;;;1.83;0.82;;;27.30;59.00;;;;;;5132909;23;20469;-46
2023/02/24 03:52:36;;;;;;;1.42;0.52;;;27.40;58.80;;;;;;5131608;23;20017;-42
2023/02/24 03:55:05;;;;;;;2.10;0.70;;;27.40;59.40;;;;;;5140205;23;20356;-49
2023/02/24 03:57:58;;;;;;;0.68;0.38;;;27.40;58.70;;;;;;5137548;23;20019;-44
2023/02/24 04:00:46;;;;;;;1.58;0.80;;;27.50;58.80;;;;;;5137354;23;20016;-48
2023/02/24 04:03:15;;;;;;;3.15;0.80;;;27.50;58.70;;;;;;5136073;23;20031;-48
2023/02/24 04:05:46;;;;;;;1.55;0.50;;;27.60;58.70;;;;;;5138169;23;20035;-47
2023/02/24 04:08:09;;;;;;;2.28;0.60;;;27.60;58.70;;;;;;5125057;23;20075;-48
2023/02/24 04:10:40;;;;;;;8.73;1.08;;;27.60;58.50;;;;;;5136562;23;20028;-50
2023/02/24 04:13:09;;;;;;;1.75;0.47;;;27.70;58.40;;;;;;5136583;23;20090;-49
2023/02/24 04:15:42;;;;;;;1.90;0.55;;;27.70;58.30;;;;;;5124876;23;20548;-50
2023/02/24 04:18:20;;;;;;;2.33;0.57;;;27.80;58.10;;;;;;5136187;23;20017;-48
2023/02/24 04:20:44;;;;;;;3.08;0.65;;;27.80;58.10;;;;;;5143584;23;20058;-49
2023/02/24 04:23:13;;;;;;;2.60;0.68;;;27.90;58.60;;;;;;5142801;23;20020;-47
2023/02/24 04:25:36;;;;;;;2.72;0.65;;;28.00;58.10;;;;;;5138027;23;20493;-53
2023/02/24 04:28:01;;;;;;;1.33;0.52;;;28.10;58.10;;;;;;5137185;23;20405;-49
2023/02/24 04:30:28;;;;;;;3.25;1.00;;;28.10;58.00;;;;;;5141519;23;20024;-49
2023/02/24 04:32:51;;;;;;;0.70;0.50;;;28.20;57.90;;;;;;5138872;23;20040;-48
2023/02/24 04:35:18;;;;;;;1.00;0.50;;;28.30;57.80;;;;;;5141670;23;20115;-50
2023/02/24 04:37:43;;;;;;;0.80;0.40;;;28.40;57.50;;;;;;5142011;23;20442;-51
2023/02/24 04:40:09;;;;;;;1.65;0.57;;;28.40;57.40;;;;;;5132836;23;20016;-50
2023/02/24 04:42:32;;;;;;;0.50;0.30;;;28.50;57.30;;;;;;5142980;23;20035;-46
2023/02/24 04:44:57;;;;;;;0.95;0.60;;;28.60;57.00;;;;;;5142499;23;20013;-45
2023/02/24 04:47:19;;;;;;;1.23;0.63;;;28.70;56.90;;;;;;5142711;23;20035;-48
2023/02/24 04:49:43;;;;;;;0.93;0.45;;;28.80;56.70;;;;;;5142730;23;20028;-49
2023/02/24 04:52:08;;;;;;;0.82;0.50;;;28.80;56.80;;;;;;5141497;23;20017;-50
2023/02/24 04:54:31;;;;;;;1.85;0.52;;;28.90;56.70;;;;;;5144648;23;20017;-51
2023/02/24 04:56:53;;;;;;;;;;;29.00;56.50;;;;;;5136659;23;20353;-47
2023/02/24 04:59:16;;;;;;;3.25;1.52;;;29.00;56.60;;;;;;5144608;23;19918;-47
2023/02/24 05:01:42;;;;;;;4.72;3.97;;;29.10;55.50;;;;;;5144025;23;20067;-50
2023/02/24 05:04:05;;;;;;;5.55;4.25;;;28.80;53.10;;;;;;5143164;23;20017;-53
2023/02/24 05:06:28;;;;;;;6.25;4.95;;;28.50;52.20;;;;;;5143358;23;20016;-51
2023/02/24 05:08:51;;;;;;;5.93;4.65;;;28.30;51.90;;;;;;5142747;23;20020;-47
2023/02/24 05:11:15;;;;;;;5.80;4.57;;;28.10;51.00;;;;;;5132282;23;20454;-49
2023/02/24 05:13:37;;;;;;;5.30;4.32;;;27.90;51.00;;;;;;5141034;23;20017;-48
2023/02/24 05:16:07;;;;;;;5.55;4.55;;;27.70;50.80;;;;;;5144908;23;20104;-45
2023/02/24 05:18:35;;;;;;;4.60;4.10;;;27.60;50.10;;;;;;5143354;23;20531;-47
2023/02/24 05:23:46;;;;;;;5.40;4.22;;;27.20;51.50;;;;;;5139252;23;20012;-51
2023/02/24 05:26:09;;;;;;;4.43;3.60;;;27.00;50.80;;;;;;5142157;23;20354;-49
2023/02/24 05:28:31;;;;;;;3.92;3.30;;;26.80;50.10;;;;;;5142678;23;20402;-46
2023/02/24 05:30:54;;;;;;;4.65;3.45;;;26.70;49.80;;;;;;5142903;23;20027;-51
2023/02/24 05:33:20;;;;;;;4.25;2.75;;;26.60;50.10;;;;;;5144113;23;20017;-50
2023/02/24 05:35:43;;;;;;;3.35;2.70;;;26.50;50.60;;;;;;5144882;23;20471;-47
2023/02/24 05:38:07;;;;;;;3.50;2.50;;;26.30;50.70;;;;;;5146354;23;20099;-47
2023/02/24 05:40:29;;;;;;;3.53;2.72;;;26.10;51.20;;;;;;5137948;23;20017;-47
2023/02/24 05:42:52;;;;;;;2.72;2.00;;;26.00;50.90;;;;;;5146005;23;20024;-43
2023/02/24 05:45:14;;;;;;;3.00;1.98;;;25.80;50.20;;;;;;5145525;23;20039;-43
2023/02/24 05:47:38;;;;;;;3.15;2.22;;;25.80;49.80;;;;;;5144928;23;20020;-46
2023/02/24 05:50:02;;;;;;;2.80;2.00;;;25.70;50.00;;;;;;5137266;23;20035;-42
2023/02/24 05:52:24;;;;;;;3.72;2.20;;;25.70;50.00;;;;;;5137816;23;20016;-44
2023/02/24 05:54:48;;;;;;;5.70;1.90;;;25.60;50.00;;;;;;5143976;23;20021;-45
2023/02/24 05:57:19;;;;;;;2.38;1.45;;;25.50;49.60;;;;;;5146279;23;20012;-44
2023/02/24 05:59:43;;;;;;;2.38;1.52;;;25.40;51.20;;;;;;5144499;23;20549;-43
2023/02/24 06:02:10;;;;;;;1.95;1.35;;;25.30;50.80;;;;;;5146549;23;20026;-41
2023/02/24 06:04:39;;;;;;;1.75;1.17;;;25.20;50.40;;;;;;5145730;23;20020;-44
2023/02/24 06:07:03;;;;;;;2.13;1.33;;;25.10;51.00;;;;;;5145614;23;20468;-44
2023/02/24 06:09:25;;;;;;;2.22;1.30;;;25.00;51.30;;;;;;5136515;23;20039;-44
2023/02/24 06:11:48;;;;;;;1.92;1.33;;;24.90;50.70;;;;;;5144292;23;20019;-45
2023/02/24 06:14:12;;;;;;;1.97;1.30;;;24.80;50.50;;;;;;5144315;23;20371;-47
2023/02/24 06:16:39;;;;;;;1.40;0.88;;;24.70;52.00;;;;;;5146139;23;20012;-48
2023/02/24 06:19:02;;;;;;;1.55;1.02;;;24.70;50.90;;;;;;5131699;23;20025;-44
2023/02/24 06:21:28;;;;;;;1.90;0.90;;;24.60;51.30;;;;;;5144589;23;20023;-44
2023/02/24 06:23:51;;;;;;;1.00;0.88;;;24.60;51.60;;;;;;5144846;23;20374;-42
2023/02/24 06:26:18;;;;;;;1.23;0.90;;;24.50;51.10;;;;;;5143829;23;20024;-49
2023/02/24 06:28:42;;;;;;;2.08;0.90;;;24.40;51.10;;;;;;5136073;23;20027;-42
2023/02/24 06:31:07;;;;;;;1.10;0.60;;;24.30;51.60;;;;;;5136596;23;20147;-41
2023/02/24 06:33:30;;;;;;;1.27;0.77;;;24.20;51.40;;;;;;5144468;23;20066;-49
2023/02/24 06:35:52;;;;;;;0.95;0.60;;;24.20;51.60;;;;;;5142844;23;20028;-50
2023/02/24 06:38:15;;;;;;;0.88;0.70;;;24.10;51.90;;;;;;5144054;23;20458;-46
2023/02/24 06:40:37;;;;;;;0.95;0.60;;;24.00;52.00;;;;;;5138437;23;20062;-47
2023/02/24 06:42:59;;;;;;;1.40;0.75;;;24.00;52.00;;;;;;5138318;23;20024;-47
2023/02/24 06:45:23;;;;;;;1.33;0.80;;;23.90;51.70;;;;;;5139828;23;20082;-50
2023/02/24 06:47:47;;;;;;;1.38;0.70;;;23.80;51.80;;;;;;5130858;23;20344;-46
2023/02/24 06:50:11;;;;;;;5.25;0.63;;;23.80;52.30;;;;;;5139381;23;20122;-47
2023/02/24 06:52:35;;;;;;;2.78;0.75;;;23.70;52.00;;;;;;5142218;23;20028;-45
2023/02/24 06:54:57;;;;;;;;;;;23.60;51.90;;;;;;5142422;23;20016;-47
2023/02/24 06:57:19;;;;;;;0.55;0.40;;;23.60;52.10;;;;;;5142840;23;20063;-43
2023/02/24 06:59:42;;;;;;;1.40;0.60;;;23.50;51.20;;;;;;5143072;23;20486;-45
2023/02/24 07:02:06;;;;;;;1.08;0.50;;;23.40;51.50;;;;;;5132110;23;20087;-48
2023/02/24 07:04:29;;;;;;;1.15;0.52;;;23.40;52.00;;;;;;5141778;23;20478;-56
2023/02/24 07:06:55;;;;;;;1.15;0.60;;;23.30;51.90;;;;;;5141256;23;20015;-50
2023/02/24 07:09:23;;;;;;;2.95;0.68;;;23.20;51.80;;;;;;5143695;23;20024;-49
2023/02/24 07:11:51;;;;;;;1.48;0.68;;;23.20;52.30;;;;;;5141713;23;20027;-48
2023/02/24 07:14:15;;;;;;;2.30;1.10;;;23.10;52.70;;;;;;5133452;23;20008;-49
2023/02/24 07:16:40;;;;;;;;;;;23.10;52.20;;;;;;5141969;23;20103;-49
2023/02/24 07:19:12;;;;;;;6.15;2.42;;;23.00;53.20;;;;;;5134184;23;19908;-51
2023/02/24 07:21:45;;;;;;;6.65;2.15;;;23.00;53.20;;;;;;5142131;23;20040;-53
2023/02/24 07:24:12;;;;;;;4.35;1.80;;;23.00;52.70;;;;;;5135137;23;20281;-52
2023/02/24 07:26:40;;;;;;;4.80;2.08;;;22.90;52.80;;;;;;5143401;23;20019;-57
2023/02/24 07:29:03;;;;;;;5.18;2.10;;;22.80;52.10;;;;;;5142044;23;20034;-49
2023/02/24 07:31:25;;;;;;;5.32;2.30;;;22.70;53.10;;;;;;5135175;23;20016;-51
2023/02/24 07:33:50;;;;;;;5.18;2.10;;;22.70;53.20;;;;;;5133120;23;20044;-52
2023/02/24 07:36:21;;;;;;;4.95;2.38;;;22.60;53.00;;;;;;5142655;23;20020;-53
2023/02/24 07:38:45;;;;;;;6.57;2.30;;;22.60;52.80;;;;;;5141072;23;20008;-53
2023/02/24 07:41:14;;;;;;;4.70;2.42;;;22.50;52.70;;;;;;5143122;23;20047;-53
2023/02/24 07:43:41;;;;;;;4.50;2.30;;;22.40;52.70;;;;;;5141416;23;20516;-49
2023/02/24 07:46:08;;;;;;;4.20;2.10;;;22.40;52.80;;;;;;5142323;23;20020;-50
2023/02/24 07:48:30;;;;;;;3.60;1.88;;;22.30;52.60;;;;;;5142020;23;20017;-53
2023/02/24 07:50:53;;;;;;;3.95;2.08;;;22.20;52.70;;;;;;5141730;23;20012;-52
2023/02/24 07:53:17;;;;;;;5.28;2.40;;;22.10;52.70;;;;;;5131517;23;20023;-52
2023/02/24 07:55:40;;;;;;;4.47;2.15;;;22.10;53.10;;;;;;5142547;23;20078;-49
2023/02/24 07:58:04;;;;;;;3.30;1.83;;;22.00;53.00;;;;;;5143169;23;20128;-50
2023/02/24 08:00:27;;;;;;;3.55;1.45;;;21.90;53.00;;;;;;5141708;23;20020;-50
2023/02/24 08:02:50;;;;;;;3.30;1.50;;;21.80;54.00;;;;;;5141876;23;20013;-50
2023/02/24 08:05:12;;;;;;;2.58;1.50;;;21.80;53.10;;;;;;5133181;23;20017;-51
2023/02/24 08:07:35;;;;;;;3.28;1.40;;;21.70;53.10;;;;;;5141437;23;20035;-52
2023/02/24 08:10:12;;;;;;;2.15;1.33;;;21.60;53.30;;;;;;5143125;23;20672;-53
2023/02/24 08:12:41;;;;;;;3.78;1.25;;;21.60;53.40;;;;;;5134592;23;20008;-48
2023/02/24 08:15:15;;;;;;;2.13;1.10;;;21.50;53.20;;;;;;5134334;23;20016;-53
2023/02/24 08:17:39;;;;;;;1.70;0.93;;;21.40;53.30;;;;;;5143129;23;20118;-47
2023/02/24 08:20:20;;;;;;;1.80;0.88;;;21.40;53.50;;;;;;5143603;23;20052;-50
2023/02/24 08:22:50;;;;;;;2.03;1.02;;;21.30;53.60;;;;;;5136484;23;20023;-49
2023/02/24 08:25:18;;;;;;;1.55;0.70;;;21.20;53.70;;;;;;5134543;23;20023;-53
2023/02/24 08:27:41;;;;;;;1.90;0.95;;;21.20;53.60;;;;;;5136900;23;20477;-50
2023/02/24 08:30:04;;;;;;;1.27;0.70;;;21.10;53.80;;;;;;5144873;23;20032;-55
2023/02/24 08:32:43;;;;;;;1.13;0.50;;;21.00;53.60;;;;;;5143377;23;20016;-50
2023/02/24 08:35:17;;;;;;;1.20;0.95;;;20.90;54.10;;;;;;5136718;23;20462;-54
2023/02/24 08:37:45;;;;;;;2.08;1.08;;;20.90;53.80;;;;;;5132049;23;20012;-51
2023/02/24 08:42:57;;;;;;;0.82;0.68;;;20.80;53.90;;;;;;5144444;22;20405;-54
2023/02/24 08:45:19;;;;;;;1.15;0.73;;;20.70;54.10;;;;;;5141625;23;20036;-52
2023/02/24 08:47:44;;;;;;;0.95;0.82;;;20.60;54.00;;;;;;5143486;23;20050;-52
2023/02/24 08:50:06;;;;;;;1.25;0.55;;;20.60;54.10;;;;;;5133234;23;20032;-48
2023/02/24 08:52:29;;;;;;;1.73;0.88;;;20.50;54.30;;;;;;5143265;23;20020;-50
2023/02/24 08:54:53;;;;;;;0.70;0.60;;;20.50;53.90;;;;;;5139614;23;20104;-54
2023/02/24 08:57:17;;;;;;;0.98;0.60;;;20.40;54.20;;;;;;5131641;23;20016;-54
2023/02/24 08:59:48;;;;;;;0.98;0.77;;;20.40;54.10;;;;;;5137668;23;20099;-50
2023/02/24 09:02:39;;;;;;;1.95;0.88;;;20.30;54.40;;;;;;5140754;23;20088;-53
2023/02/24 09:05:10;;;;;;;0.70;0.50;;;20.30;54.40;;;;;;5131587;23;20032;-49
2023/02/24 09:07:36;;;;;;;0.50;0.50;;;20.20;54.50;;;;;;5137641;23;20017;-53
2023/02/24 09:09:59;;;;;;;0.65;0.60;;;20.10;54.90;;;;;;5138926;23;20031;-52
2023/02/24 09:12:27;;;;;;;0.73;0.70;;;20.10;54.20;;;;;;5139464;23;20048;-51
2023/02/24 09:14:55;;;;;;;1.00;0.65;;;20.00;54.40;;;;;;5141093;23;20016;-54
2023/02/24 09:17:19;;;;;;;1.52;0.73;;;20.00;54.40;;;;;;5141352;23;20016;-51
2023/02/24 09:22:31;;;;;;;1.35;0.70;;;19.80;54.40;;;;;;5143042;22;20020;-54
2023/02/24 09:25:16;;;;;;;0.82;0.70;;;19.80;54.60;;;;;;5140706;23;20031;-52
2023/02/24 09:27:41;;;;;;;1.13;0.68;;;19.70;54.70;;;;;;5133718;23;20086;-48
2023/02/24 09:30:06;;;;;;;1.20;0.80;;;19.70;54.70;;;;;;5132362;23;20578;-54
2023/02/24 09:32:29;;;;;;;1.17;0.85;;;19.60;54.80;;;;;;5139145;23;20096;-47
2023/02/24 09:34:52;;;;;;;1.15;0.57;;;19.60;54.80;;;;;;5139460;23;20016;-50
2023/02/24 09:37:24;;;;;;;0.65;0.60;;;19.50;54.70;;;;;;5132690;23;20031;-50
2023/02/24 09:44:51;;;;;;;1.13;0.50;;;19.40;55.90;;;;;;5141751;22;20525;-49
2023/02/24 09:47:38;;;;;;;2.45;0.85;;;19.30;55.30;;;;;;5132823;23;20040;-49
2023/02/24 09:50:12;;;;;;;1.02;0.82;;;19.30;55.40;;;;;;5131612;23;20028;-52
2023/02/24 09:52:40;;;;;;;;;;;19.20;55.50;;;;;;5140533;23;20016;-49
2023/02/24 09:55:23;;;;;;;0.95;0.70;;;19.20;55.60;;;;;;5140489;23;20327;-51
2023/02/24 09:58:23;;;;;;;1.63;1.05;;;19.10;55.50;;;;;;5139017;23;20012;-51
2023/02/24 10:00:43;;;;;;;0.88;0.77;;;19.10;55.60;;;;;;5129862;23;20023;-52
2023/02/24 10:03:46;;;;;;;1.95;0.98;;;19.00;55.60;;;;;;5139843;23;20401;-49
2023/02/24 10:06:25;;;;;;;1.98;1.10;;;19.00;55.30;;;;;;5140381;23;20021;-48
2023/02/24 10:09:10;;;;;;;1.60;1.00;;;18.90;56.40;;;;;;5140486;23;20358;-48
2023/02/24 10:11:32;;;;;;;1.17;0.90;;;18.90;56.00;;;;;;5132533;23;20473;-52
2023/02/24 10:13:56;;;;;;;1.70;1.00;;;18.90;56.10;;;;;;5139541;23;20016;-50
2023/02/24 10:16:24;;;;;;;1.17;0.90;;;18.80;56.00;;;;;;5132129;23;20039;-53
2023/02/24 10:19:15;;;;;;;1.35;0.70;;;18.80;56.20;;;;;;5141176;23;20430;-49
2023/02/24 10:22:01;;;;;;;2.15;0.88;;;18.70;56.30;;;;;;5130231;23;20020;-47
2023/02/24 10:24:46;;;;;;;1.50;0.82;;;18.70;56.30;;;;;;5139319;23;20453;-52
2023/02/24 10:27:25;;;;;;;1.48;0.85;;;18.60;56.30;;;;;;5138336;23;20955;-49
2023/02/24 10:29:59;;;;;;;1.38;0.95;;;18.60;56.40;;;;;;5139744;23;20024;-50
2023/02/24 10:32:41;;;;;;;1.73;0.93;;;18.60;56.40;;;;;;5131236;23;20023;-49
2023/02/24 10:35:05;;;;;;;1.83;1.05;;;18.50;56.60;;;;;;5139760;23;20021;-52
2023/02/24 10:37:28;;;;;;;1.73;1.02;;;18.50;56.70;;;;;;5132679;23;20017;-50
2023/02/24 10:39:55;;;;;;;1.08;0.90;;;18.40;56.60;;;;;;5139800;23;20019;-49
2023/02/24 10:42:33;;;;;;;1.67;0.98;;;18.40;56.90;;;;;;5139075;23;20031;-51
2023/02/24 10:45:16;;;;;;;1.52;0.93;;;18.40;56.90;;;;;;5139310;23;20012;-52
2023/02/24 10:47:43;;;;;;;1.42;0.95;;;18.30;57.50;;;;;;5138712;23;20093;-46
2023/02/24 10:50:11;;;;;;;1.48;0.80;;;18.30;57.10;;;;;;5132726;23;20020;-49
2023/02/24 10:52:36;;;;;;;1.38;0.80;;;18.30;57.40;;;;;;5139585;23;20024;-51
2023/02/24 10:55:07;;;;;;;2.38;0.90;;;18.30;57.70;;;;;;5138134;23;20017;-53
2023/02/24 10:57:36;;;;;;;0.90;0.60;;;18.40;58.30;;;;;;5138477;23;20044;-48
2023/02/24 11:02:31;;;;;;;1.75;0.82;;;18.60;59.50;;;;;;5140423;22;20020;-46
2023/02/24 11:07:24;;;;;;;1.08;0.63;;;18.70;60.80;;;;;;5145829;22;20379;-48
2023/02/24 11:09:52;;;;;;;1.30;0.80;;;18.90;61.10;;;;;;5136097;23;20032;-47
2023/02/24 11:17:57;;;;;;;1.40;0.80;;;19.20;62.20;;;;;;5139704;23;20012;-50
2023/02/24 11:20:32;;;;;;;2.08;0.68;;;19.30;62.30;;;;;;5141982;23;20063;-49
2023/02/24 11:22:56;;;;;;;1.77;1.05;;;19.40;61.70;;;;;;5142028;23;20020;-50
2023/02/24 11:25:21;;;;;;;1.90;0.90;;;19.50;61.90;;;;;;5142124;23;20092;-53
2023/02/24 11:27:46;;;;;;;1.35;0.73;;;19.60;62.20;;;;;;5141184;23;20016;-52
2023/02/24 11:30:13;;;;;;;;;;;19.70;62.50;;;;;;5141636;23;20028;-49
2023/02/24 11:33:05;;;;;;;1.55;0.73;;;19.80;62.30;;;;;;5140429;23;19957;-48
2023/02/24 11:35:36;;;;;;;1.48;0.65;;;19.90;62.60;;;;;;5142417;23;20430;-49
2023/02/24 11:38:06;;;;;;;0.75;0.55;;;20.00;62.60;;;;;;5135374;23;20578;-48
2023/02/24 11:40:36;;;;;;;1.58;0.73;;;20.10;62.60;;;;;;5136265;23;20523;-50
2023/02/24 11:43:04;;;;;;;2.05;1.00;;;20.20;62.70;;;;;;5143083;23;20078;-51
2023/02/24 11:45:32;;;;;;;1.25;0.50;;;20.30;63.00;;;;;;5142725;23;20021;-53
2023/02/24 11:48:13;;;;;;;0.82;0.57;;;20.30;62.80;;;;;;5134686;23;20020;-47
2023/02/24 11:50:42;;;;;;;0.45;0.43;;;20.40;62.70;;;;;;5143992;23;20035;-47
2023/02/24 11:53:26;;;;;;;1.20;0.88;;;20.50;63.30;;;;;;5142094;23;20132;-49
2023/02/24 11:55:57;;;;;;;1.40;0.75;;;20.60;63.00;;;;;;5143836;23;20020;-49
2023/02/24 11:58:40;;;;;;;1.55;0.93;;;20.60;63.10;;;;;;5143102;23;20038;-50
2023/02/24 12:01:22;;;;;;;2.63;0.77;;;20.70;63.20;;;;;;5132724;23;20087;-50
2023/02/24 12:03:57;;;;;;;0.98;0.50;;;20.80;62.80;;;;;;5142982;23;20019;-51
2023/02/24 12:06:29;;;;;;;1.77;0.82;;;20.80;62.90;;;;;;5144391;23;20096;-51
2023/02/24 12:08:56;;;;;;;1.38;0.43;;;20.90;63.10;;;;;;5143136;23;20024;-47
2023/02/24 12:11:45;;;;;;;1.25;0.57;;;20.90;63.20;;;;;;5144250;23;20035;-49
2023/02/24 12:14:28;;;;;;;1.50;0.70;;;21.00;63.20;;;;;;5144643;23;20506;-53
2023/02/24 12:17:22;;;;;;;2.17;0.75;;;21.00;63.00;;;;;;5135380;22;20098;-43
2023/02/24 12:19:58;;;;;;;1.13;0.77;;;21.10;63.30;;;;;;5114884;23;20012;-44
2023/02/24 12:22:25;;;;;;;0.63;0.52;;;21.10;63.20;;;;;;5144481;23;20013;-45
2023/02/24 12:24:51;;;;;;;0.75;0.65;;;21.20;63.10;;;;;;5132541;23;20016;-44
2023/02/24 12:27:17;;;;;;;1.05;0.50;;;21.30;62.20;;;;;;5132803;23;20107;-44
2023/02/24 12:30:21;;;;;;;1.48;0.60;;;21.30;62.10;;;;;;5143250;23;20071;-45
2023/02/24 12:33:29;;;;;;;0.68;0.60;;;21.40;62.80;;;;;;5142619;23;20369;-46
2023/02/24 12:36:18;;;;;;;1.00;0.70;;;21.40;62.80;;;;;;5104086;23;20013;-43
2023/02/24 12:39:14;;;;;;;0.75;0.47;;;21.50;62.80;;;;;;5140362;23;20109;-48
2023/02/24 12:41:57;;;;;;;0.43;0.43;;;21.50;62.70;;;;;;5099754;23;20025;-47
2023/02/24 12:44:48;;;;;;;1.55;0.75;;;21.50;62.90;;;;;;5142648;23;20013;-46
2023/02/24 12:47:15;;;;;;;6.40;1.95;;;21.60;62.90;;;;;;5144735;23;20020;-44
2023/02/24 12:49:41;;;;;;;14.75;1.83;;;21.60;63.70;;;;;;5130906;23;20114;-50
2023/02/24 12:52:13;;;;;;;6.63;1.38;;;21.80;63.90;;;;;;5131655;23;20598;-49
2023/02/24 12:54:59;;;;;;;7.80;1.85;;;21.80;64.00;;;;;;5132008;23;20044;-50
2023/02/24 12:57:35;;;;;;;4.13;1.10;;;22.00;64.10;;;;;;5143066;23;20614;-49
2023/02/24 13:00:09;;;;;;;4.78;1.88;;;22.10;64.40;;;;;;5142058;23;20017;-50
2023/02/24 13:03:05;;;;;;;3.15;0.93;;;22.10;64.90;;;;;;5141395;23;20013;-47
2023/02/24 13:05:56;;;;;;;4.35;0.77;;;22.30;64.30;;;;;;5142763;23;20454;-50
2023/02/24 13:08:28;;;;;;;8.73;1.20;;;22.30;64.20;;;;;;5115122;23;20012;-47
2023/02/24 13:11:19;;;;;;;7.13;1.30;;;22.40;64.40;;;;;;5143045;23;20055;-49
2023/02/24 13:13:49;;;;;;;28.90;2.60;;;22.40;64.40;;;;;;5105079;23;20056;-51
2023/02/24 13:16:12;;;;;;;11.13;1.45;;;22.50;64.40;;;;;;5140956;23;20343;-50
2023/02/24 13:18:39;;;;;;;6.65;1.20;;;22.50;64.30;;;;;;5143898;22;20023;-56
2023/02/24 13:21:07;;;;;;;9.77;1.20;;;22.60;64.20;;;;;;5143071;23;20012;-56
2023/02/24 13:23:30;;;;;;;2.40;0.85;;;22.60;63.90;;;;;;5133978;23;20032;-43
2023/02/24 13:25:54;;;;;;;6.20;1.13;;;22.70;63.90;;;;;;5132912;23;20044;-52
2023/02/24 13:28:37;;;;;;;2.97;0.77;;;22.70;63.90;;;;;;5142555;23;20021;-52